createdAt,value
2022-09-25T00:15:03.352Z,19.47
2022-09-25T00:33:46.087Z,17.60
2022-09-25T01:04:54.606Z,9.70
2022-09-25T01:11:19.562Z,9.23
2022-09-25T01:23:55.475Z,11.93
2022-09-25T02:19:06.808Z,9.33
2022-09-25T02:25:30.204Z,10.17
2022-09-25T02:31:41.171Z,9.23
2022-09-25T02:56:44.234Z,11.37
2022-09-25T03:34:23.906Z,8.97
2022-09-25T03:40:15.993Z,8.83
2022-09-25T03:52:13.390Z,10.27
2022-09-25T03:58:20.152Z,11.53
2022-09-25T04:09:20.089Z,9.30
2022-09-25T04:15:25.269Z,10.40
2022-09-25T04:27:03.866Z,9.90
2022-09-25T04:32:41.539Z,10.27
2022-09-25T04:38:19.673Z,9.90
2022-09-25T04:44:09.050Z,10.47
2022-09-25T04:49:35.999Z,10.73
2022-09-25T04:54:51.678Z,11.07
2022-09-25T05:00:15.299Z,10.23
2022-09-25T05:06:18.312Z,9.40
2022-09-25T05:12:13.986Z,9.40
2022-09-25T05:18:36.666Z,9.07
2022-09-25T05:30:37.397Z,9.20
2022-09-25T05:37:01.916Z,9.03
2022-09-25T05:44:45.710Z,9.00
2022-09-25T05:49:44.089Z,8.97
2022-09-25T06:01:50.024Z,8.53
2022-09-25T06:20:47.985Z,8.27
2022-09-25T06:38:34.969Z,8.60
2022-09-25T06:43:23.270Z,8.07
2022-09-25T06:48:12.777Z,8.13
2022-09-25T06:53:32.788Z,7.87
2022-09-25T06:58:18.862Z,8.73
2022-09-25T07:03:24.740Z,9.00
2022-09-25T07:08:09.196Z,8.30
2022-09-25T07:13:18.137Z,9.50
2022-09-25T07:18:01.889Z,8.97
2022-09-25T07:22:50.807Z,9.30
2022-09-25T07:27:38.577Z,9.00
2022-09-25T07:32:26.119Z,9.93
2022-09-25T07:37:13.945Z,9.23
2022-09-25T07:42:08.017Z,10.67
2022-09-25T07:47:26.219Z,8.87
2022-09-25T07:52:15.808Z,8.40
2022-09-25T07:57:01.119Z,8.50
2022-09-25T08:02:18.636Z,9.03
2022-09-25T08:07:05.131Z,9.53
2022-09-25T08:11:55.531Z,9.50
2022-09-25T08:17:15.578Z,8.97
2022-09-25T08:23:22.678Z,9.33
2022-09-25T08:28:11.598Z,9.80
2022-09-25T13:10:37.508Z,5.07
2022-09-25T16:28:59.235Z,5.47
2022-09-25T16:35:50.536Z,5.00
2022-09-25T16:41:31.325Z,8.17
2022-09-25T16:54:03.166Z,7.07
2022-09-25T17:00:27.229Z,5.87
2022-09-25T17:19:51.266Z,7.10
2022-09-25T17:25:47.774Z,7.83
2022-09-25T18:24:14.078Z,10.30
2022-09-25T18:42:49.509Z,10.03
2022-09-25T19:13:57.882Z,9.57
2022-09-25T19:19:02.344Z,11.10
2022-09-25T19:24:59.762Z,10.80
2022-09-25T19:30:19.705Z,10.53
2022-09-25T19:35:06.439Z,10.27
2022-09-25T19:46:49.629Z,10.13
2022-09-25T19:51:58.852Z,9.00
2022-09-25T19:56:45.346Z,11.50
2022-09-25T20:02:00.150Z,12.67
2022-09-25T20:06:55.623Z,10.30
2022-09-25T20:11:39.355Z,11.57
2022-09-25T20:16:29.315Z,11.53
2022-09-25T20:21:17.706Z,11.13
2022-09-25T20:26:20.151Z,9.97
2022-09-25T20:31:07.991Z,11.37
2022-09-25T20:35:54.982Z,10.53
2022-09-25T20:40:43.401Z,9.70
2022-09-25T20:45:29.039Z,9.33
2022-09-25T20:50:22.561Z,9.87
2022-09-25T20:55:11.152Z,9.87
2022-09-25T21:00:13.364Z,9.73
2022-09-25T21:05:12.898Z,9.83
2022-09-25T21:10:06.781Z,9.57
2022-09-25T21:14:50.990Z,10.43
2022-09-25T21:19:40.346Z,10.17
2022-09-25T21:24:26.874Z,10.73
2022-09-25T21:29:15.953Z,11.90
2022-09-25T21:34:01.581Z,10.63
2022-09-25T21:38:52.691Z,11.00
2022-09-25T21:43:40.521Z,10.47
2022-09-25T21:48:25.024Z,9.73
2022-09-25T21:53:18.201Z,9.70
2022-09-25T21:58:03.891Z,8.70
2022-09-25T22:02:50.288Z,8.73
2022-09-25T22:07:38.071Z,8.90
2022-09-25T22:12:25.353Z,8.97
2022-09-25T22:17:14.369Z,9.77
2022-09-25T22:22:02.036Z,9.30
2022-09-25T22:26:50.636Z,8.80
2022-09-25T22:31:41.252Z,8.80
2022-09-25T22:36:27.427Z,9.20
2022-09-25T22:41:15.189Z,10.17
2022-09-25T22:46:00.960Z,9.47
2022-09-25T22:50:55.431Z,8.90
2022-09-25T22:55:40.397Z,8.53
2022-09-25T23:00:24.942Z,9.27
2022-09-25T23:05:18.201Z,9.97
2022-09-25T23:10:01.899Z,11.33
2022-09-25T23:14:52.443Z,10.80
2022-09-25T23:19:39.380Z,11.70
2022-09-25T23:24:26.727Z,13.43
2022-09-25T23:29:15.096Z,13.23
2022-09-25T23:34:03.972Z,12.53
2022-09-25T23:38:52.235Z,12.23
2022-09-25T23:43:38.999Z,14.07
2022-09-25T23:48:25.876Z,17.43
2022-09-25T23:53:14.449Z,15.47
2022-09-25T23:58:01.620Z,15.77
